sensor_id;sensor_type;location;lat;lon;timestamp;P1;durP1;ratioP1;P2;durP2;ratioP2
7737;SDS011;29398;45.328;5.558;2023-03-14T00:00:06;4.22;;;1.83;;
7737;SDS011;29398;45.328;5.558;2023-03-14T00:01:10;3.22;;;1.25;;
7737;SDS011;29398;45.328;5.558;2023-03-14T00:02:14;2.45;;;1.38;;
7737;SDS011;29398;45.328;5.558;2023-03-14T00:03:15;2.13;;;1.20;;
7737;SDS011;29398;45.328;5.558;2023-03-14T00:04:17;0.82;;;0.82;;
7737;SDS011;29398;45.328;5.558;2023-03-14T00:05:18;3.67;;;1.30;;
7737;SDS011;29398;45.328;5.558;2023-03-14T00:06:20;1.17;;;1.00;;
7737;SDS011;29398;45.328;5.558;2023-03-14T00:07:22;2.00;;;1.05;;
7737;SDS011;29398;45.328;5.558;2023-03-14T00:08:25;4.15;;;1.40;;
7737;SDS011;29398;45.328;5.558;2023-03-14T00:09:26;2.00;;;0.95;;
7737;SDS011;29398;45.328;5.558;2023-03-14T00:10:29;0.80;;;0.60;;
7737;SDS011;29398;45.328;5.558;2023-03-14T00:11:30;1.63;;;0.70;;
7737;SDS011;29398;45.328;5.558;2023-03-14T00:12:33;1.33;;;1.10;;
7737;SDS011;29398;45.328;5.558;2023-03-14T00:13:34;1.25;;;0.90;;
7737;SDS011;29398;45.328;5.558;2023-03-14T00:14:38;1.40;;;1.10;;
7737;SDS011;29398;45.328;5.558;2023-03-14T00:15:39;2.03;;;1.27;;
7737;SDS011;29398;45.328;5.558;2023-03-14T00:16:41;3.42;;;1.30;;
7737;SDS011;29398;45.328;5.558;2023-03-14T00:17:42;1.08;;;0.90;;
7737;SDS011;29398;45.328;5.558;2023-03-14T00:18:45;2.97;;;1.30;;
7737;SDS011;29398;45.328;5.558;2023-03-14T00:19:46;1.70;;;1.15;;
7737;SDS011;29398;45.328;5.558;2023-03-14T00:20:52;2.15;;;0.98;;
7737;SDS011;29398;45.328;5.558;2023-03-14T00:21:53;1.80;;;1.17;;
7737;SDS011;29398;45.328;5.558;2023-03-14T00:22:55;2.85;;;1.02;;
7737;SDS011;29398;45.328;5.558;2023-03-14T00:23:56;1.70;;;1.20;;
7737;SDS011;29398;45.328;5.558;2023-03-14T00:24:59;3.03;;;1.40;;
7737;SDS011;29398;45.328;5.558;2023-03-14T00:26:00;2.80;;;1.55;;
7737;SDS011;29398;45.328;5.558;2023-03-14T00:27:03;3.30;;;1.40;;
7737;SDS011;29398;45.328;5.558;2023-03-14T00:28:04;3.33;;;1.52;;
7737;SDS011;29398;45.328;5.558;2023-03-14T00:29:06;1.77;;;1.27;;
7737;SDS011;29398;45.328;5.558;2023-03-14T00:30:09;1.67;;;1.38;;
7737;SDS011;29398;45.328;5.558;2023-03-14T00:31:13;2.53;;;1.73;;
7737;SDS011;29398;45.328;5.558;2023-03-14T00:32:15;1.65;;;1.02;;
7737;SDS011;29398;45.328;5.558;2023-03-14T00:33:17;1.58;;;1.13;;
7737;SDS011;29398;45.328;5.558;2023-03-14T00:34:18;2.10;;;1.30;;
7737;SDS011;29398;45.328;5.558;2023-03-14T00:35:20;1.95;;;1.40;;
7737;SDS011;29398;45.328;5.558;2023-03-14T00:36:22;1.55;;;1.08;;
7737;SDS011;29398;45.328;5.558;2023-03-14T00:37:25;1.65;;;1.10;;
7737;SDS011;29398;45.328;5.558;2023-03-14T00:38:26;1.88;;;1.00;;
7737;SDS011;29398;45.328;5.558;2023-03-14T00:39:28;1.02;;;0.90;;
7737;SDS011;29398;45.328;5.558;2023-03-14T00:40:31;1.55;;;0.80;;
7737;SDS011;29398;45.328;5.558;2023-03-14T00:41:33;1.52;;;1.00;;
7737;SDS011;29398;45.328;5.558;2023-03-14T00:42:34;2.70;;;1.05;;
7737;SDS011;29398;45.328;5.558;2023-03-14T00:43:36;1.27;;;1.10;;
7737;SDS011;29398;45.328;5.558;2023-03-14T00:44:38;1.15;;;0.90;;
7737;SDS011;29398;45.328;5.558;2023-03-14T00:45:42;1.63;;;1.05;;
7737;SDS011;29398;45.328;5.558;2023-03-14T00:46:43;1.48;;;1.05;;
7737;SDS011;29398;45.328;5.558;2023-03-14T00:47:45;1.02;;;0.90;;
7737;SDS011;29398;45.328;5.558;2023-03-14T00:48:47;1.08;;;0.93;;
7737;SDS011;29398;45.328;5.558;2023-03-14T00:49:50;1.08;;;0.98;;
7737;SDS011;29398;45.328;5.558;2023-03-14T00:50:53;1.38;;;1.02;;
7737;SDS011;29398;45.328;5.558;2023-03-14T00:51:55;1.58;;;0.95;;
7737;SDS011;29398;45.328;5.558;2023-03-14T00:52:56;2.67;;;1.00;;
7737;SDS011;29398;45.328;5.558;2023-03-14T00:53:59;1.65;;;0.80;;
7737;SDS011;29398;45.328;5.558;2023-03-14T00:55:00;1.65;;;0.80;;
7737;SDS011;29398;45.328;5.558;2023-03-14T00:56:03;1.83;;;0.80;;
7737;SDS011;29398;45.328;5.558;2023-03-14T00:57:05;1.58;;;0.80;;
7737;SDS011;29398;45.328;5.558;2023-03-14T00:58:08;1.25;;;1.02;;
7737;SDS011;29398;45.328;5.558;2023-03-14T00:59:09;0.60;;;0.60;;
7737;SDS011;29398;45.328;5.558;2023-03-14T01:00:12;1.52;;;0.70;;
7737;SDS011;29398;45.328;5.558;2023-03-14T01:01:15;0.75;;;0.75;;
7737;SDS011;29398;45.328;5.558;2023-03-14T01:02:19;0.90;;;0.80;;
7737;SDS011;29398;45.328;5.558;2023-03-14T01:03:20;0.85;;;0.70;;
7737;SDS011;29398;45.328;5.558;2023-03-14T01:04:24;0.70;;;0.60;;
7737;SDS011;29398;45.328;5.558;2023-03-14T01:05:25;0.93;;;0.80;;
7737;SDS011;29398;45.328;5.558;2023-03-14T01:06:28;0.73;;;0.70;;
7737;SDS011;29398;45.328;5.558;2023-03-14T01:07:29;0.88;;;0.88;;
7737;SDS011;29398;45.328;5.558;2023-03-14T01:08:32;1.00;;;0.90;;
7737;SDS011;29398;45.328;5.558;2023-03-14T01:09:35;0.70;;;0.70;;
7737;SDS011;29398;45.328;5.558;2023-03-14T01:10:37;0.82;;;0.82;;
7737;SDS011;29398;45.328;5.558;2023-03-14T01:11:39;1.17;;;1.08;;
7737;SDS011;29398;45.328;5.558;2023-03-14T01:12:42;0.60;;;0.60;;
7737;SDS011;29398;45.328;5.558;2023-03-14T01:13:43;0.75;;;0.75;;
7737;SDS011;29398;45.328;5.558;2023-03-14T01:14:45;1.17;;;0.75;;
7737;SDS011;29398;45.328;5.558;2023-03-14T01:15:46;0.63;;;0.63;;
7737;SDS011;29398;45.328;5.558;2023-03-14T01:16:50;2.15;;;0.70;;
7737;SDS011;29398;45.328;5.558;2023-03-14T01:17:51;0.60;;;0.60;;
7737;SDS011;29398;45.328;5.558;2023-03-14T01:18:53;0.95;;;0.80;;
7737;SDS011;29398;45.328;5.558;2023-03-14T01:19:55;1.67;;;0.80;;
7737;SDS011;29398;45.328;5.558;2023-03-14T01:20:57;1.42;;;0.82;;
7737;SDS011;29398;45.328;5.558;2023-03-14T01:21:58;1.00;;;0.60;;
7737;SDS011;29398;45.328;5.558;2023-03-14T01:23:00;2.10;;;0.88;;
7737;SDS011;29398;45.328;5.558;2023-03-14T01:24:03;1.40;;;0.68;;
7737;SDS011;29398;45.328;5.558;2023-03-14T01:25:06;0.73;;;0.73;;
7737;SDS011;29398;45.328;5.558;2023-03-14T01:26:09;0.73;;;0.73;;
7737;SDS011;29398;45.328;5.558;2023-03-14T01:27:13;0.75;;;0.60;;
7737;SDS011;29398;45.328;5.558;2023-03-14T01:28:14;2.15;;;0.90;;
7737;SDS011;29398;45.328;5.558;2023-03-14T01:29:16;0.90;;;0.70;;
7737;SDS011;29398;45.328;5.558;2023-03-14T01:30:17;0.60;;;0.60;;
7737;SDS011;29398;45.328;5.558;2023-03-14T01:31:19;3.22;;;0.93;;
7737;SDS011;29398;45.328;5.558;2023-03-14T01:32:22;1.58;;;0.65;;
7737;SDS011;29398;45.328;5.558;2023-03-14T01:33:26;1.13;;;0.70;;
7737;SDS011;29398;45.328;5.558;2023-03-14T01:34:27;1.35;;;0.65;;
7737;SDS011;29398;45.328;5.558;2023-03-14T01:35:29;1.33;;;0.80;;
7737;SDS011;29398;45.328;5.558;2023-03-14T01:36:31;0.90;;;0.75;;
7737;SDS011;29398;45.328;5.558;2023-03-14T01:37:35;0.50;;;0.50;;
7737;SDS011;29398;45.328;5.558;2023-03-14T01:38:38;0.57;;;0.57;;
7737;SDS011;29398;45.328;5.558;2023-03-14T01:39:43;1.20;;;0.68;;
7737;SDS011;29398;45.328;5.558;2023-03-14T01:40:44;0.60;;;0.60;;
7737;SDS011;29398;45.328;5.558;2023-03-14T01:41:47;1.40;;;0.60;;
7737;SDS011;29398;45.328;5.558;2023-03-14T01:42:53;1.10;;;0.70;;
7737;SDS011;29398;45.328;5.558;2023-03-14T01:43:56;2.50;;;0.50;;
7737;SDS011;29398;45.328;5.558;2023-03-14T01:44:58;1.38;;;0.70;;
7737;SDS011;29398;45.328;5.558;2023-03-14T01:47:36;0.60;;;0.60;;
7737;SDS011;29398;45.328;5.558;2023-03-14T01:48:38;2.05;;;0.70;;
7737;SDS011;29398;45.328;5.558;2023-03-14T01:49:43;0.55;;;0.50;;
7737;SDS011;29398;45.328;5.558;2023-03-14T01:50:48;0.45;;;0.45;;
7737;SDS011;29398;45.328;5.558;2023-03-14T01:51:50;0.63;;;0.63;;
7737;SDS011;29398;45.328;5.558;2023-03-14T01:52:57;1.02;;;0.60;;
7737;SDS011;29398;45.328;5.558;2023-03-14T01:53:59;1.85;;;0.80;;
7737;SDS011;29398;45.328;5.558;2023-03-14T01:55:09;0.88;;;0.63;;
7737;SDS011;29398;45.328;5.558;2023-03-14T01:56:15;2.78;;;0.82;;
7737;SDS011;29398;45.328;5.558;2023-03-14T01:57:18;0.73;;;0.70;;
7737;SDS011;29398;45.328;5.558;2023-03-14T01:58:23;0.70;;;0.70;;
7737;SDS011;29398;45.328;5.558;2023-03-14T01:59:27;3.92;;;0.73;;
7737;SDS011;29398;45.328;5.558;2023-03-14T02:00:31;1.80;;;0.70;;
7737;SDS011;29398;45.328;5.558;2023-03-14T02:01:32;1.17;;;0.70;;
7737;SDS011;29398;45.328;5.558;2023-03-14T02:02:37;0.82;;;0.80;;
7737;SDS011;29398;45.328;5.558;2023-03-14T02:03:42;1.00;;;0.90;;
7737;SDS011;29398;45.328;5.558;2023-03-14T02:04:48;1.65;;;1.10;;
7737;SDS011;29398;45.328;5.558;2023-03-14T02:05:52;1.55;;;1.10;;
7737;SDS011;29398;45.328;5.558;2023-03-14T02:06:57;0.90;;;0.90;;
7737;SDS011;29398;45.328;5.558;2023-03-14T02:08:09;2.50;;;0.85;;
7737;SDS011;29398;45.328;5.558;2023-03-14T02:09:24;5.55;;;0.90;;
7737;SDS011;29398;45.328;5.558;2023-03-14T02:10:27;1.02;;;0.80;;
7737;SDS011;29398;45.328;5.558;2023-03-14T02:11:32;0.60;;;0.60;;
7737;SDS011;29398;45.328;5.558;2023-03-14T02:12:54;1.25;;;0.70;;
7737;SDS011;29398;45.328;5.558;2023-03-14T02:14:26;0.85;;;0.77;;
7737;SDS011;29398;45.328;5.558;2023-03-14T02:15:46;1.58;;;0.77;;
7737;SDS011;29398;45.328;5.558;2023-03-14T02:17:07;0.70;;;0.70;;
7737;SDS011;29398;45.328;5.558;2023-03-14T02:18:30;3.10;;;0.80;;
7737;SDS011;29398;45.328;5.558;2023-03-14T02:19:44;1.90;;;0.80;;
7737;SDS011;29398;45.328;5.558;2023-03-14T02:21:16;3.03;;;0.70;;
7737;SDS011;29398;45.328;5.558;2023-03-14T02:22:23;2.65;;;0.98;;
7737;SDS011;29398;45.328;5.558;2023-03-14T02:23:35;0.73;;;0.70;;
7737;SDS011;29398;45.328;5.558;2023-03-14T02:24:45;1.98;;;0.70;;
7737;SDS011;29398;45.328;5.558;2023-03-14T02:25:51;0.82;;;0.52;;
7737;SDS011;29398;45.328;5.558;2023-03-14T02:27:08;0.75;;;0.70;;
7737;SDS011;29398;45.328;5.558;2023-03-14T02:28:14;0.60;;;0.60;;
7737;SDS011;29398;45.328;5.558;2023-03-14T02:29:17;0.70;;;0.70;;
7737;SDS011;29398;45.328;5.558;2023-03-14T02:30:20;1.20;;;0.60;;
7737;SDS011;29398;45.328;5.558;2023-03-14T02:31:23;1.55;;;0.68;;
7737;SDS011;29398;45.328;5.558;2023-03-14T02:32:25;1.17;;;0.60;;
7737;SDS011;29398;45.328;5.558;2023-03-14T02:33:28;1.20;;;0.80;;
7737;SDS011;29398;45.328;5.558;2023-03-14T02:34:29;0.60;;;0.60;;
7737;SDS011;29398;45.328;5.558;2023-03-14T02:35:33;0.60;;;0.60;;
7737;SDS011;29398;45.328;5.558;2023-03-14T02:36:40;0.65;;;0.65;;
7737;SDS011;29398;45.328;5.558;2023-03-14T02:37:42;0.80;;;0.70;;
7737;SDS011;29398;45.328;5.558;2023-03-14T02:38:50;0.80;;;0.70;;
7737;SDS011;29398;45.328;5.558;2023-03-14T02:39:59;1.58;;;0.70;;
7737;SDS011;29398;45.328;5.558;2023-03-14T02:41:01;1.83;;;0.80;;
7737;SDS011;29398;45.328;5.558;2023-03-14T02:42:07;0.73;;;0.57;;
7737;SDS011;29398;45.328;5.558;2023-03-14T02:43:09;1.02;;;0.73;;
7737;SDS011;29398;45.328;5.558;2023-03-14T02:44:15;3.13;;;0.70;;
7737;SDS011;29398;45.328;5.558;2023-03-14T02:45:27;1.45;;;0.60;;
7737;SDS011;29398;45.328;5.558;2023-03-14T02:46:35;0.88;;;0.60;;
7737;SDS011;29398;45.328;5.558;2023-03-14T02:47:39;0.60;;;0.60;;
7737;SDS011;29398;45.328;5.558;2023-03-14T02:48:44;0.50;;;0.50;;
7737;SDS011;29398;45.328;5.558;2023-03-14T02:49:51;0.77;;;0.77;;
7737;SDS011;29398;45.328;5.558;2023-03-14T02:50:56;0.55;;;0.55;;
7737;SDS011;29398;45.328;5.558;2023-03-14T02:52:01;1.75;;;0.85;;
7737;SDS011;29398;45.328;5.558;2023-03-14T02:53:02;2.70;;;0.77;;
7737;SDS011;29398;45.328;5.558;2023-03-14T02:54:04;0.77;;;0.77;;
7737;SDS011;29398;45.328;5.558;2023-03-14T02:55:06;1.75;;;0.60;;
7737;SDS011;29398;45.328;5.558;2023-03-14T02:56:11;1.02;;;0.60;;
7737;SDS011;29398;45.328;5.558;2023-03-14T02:57:14;1.75;;;0.68;;
7737;SDS011;29398;45.328;5.558;2023-03-14T02:58:16;0.95;;;0.60;;
7737;SDS011;29398;45.328;5.558;2023-03-14T02:59:19;0.90;;;0.50;;
7737;SDS011;29398;45.328;5.558;2023-03-14T03:00:29;0.63;;;0.52;;
7737;SDS011;29398;45.328;5.558;2023-03-14T03:01:31;1.33;;;0.50;;
7737;SDS011;29398;45.328;5.558;2023-03-14T03:02:34;1.08;;;0.50;;
7737;SDS011;29398;45.328;5.558;2023-03-14T03:03:35;0.73;;;0.52;;
7737;SDS011;29398;45.328;5.558;2023-03-14T03:04:37;0.85;;;0.50;;
7737;SDS011;29398;45.328;5.558;2023-03-14T03:05:38;1.55;;;0.60;;
7737;SDS011;29398;45.328;5.558;2023-03-14T03:06:40;0.40;;;0.40;;
7737;SDS011;29398;45.328;5.558;2023-03-14T03:07:43;0.60;;;0.60;;
7737;SDS011;29398;45.328;5.558;2023-03-14T03:08:45;1.20;;;0.50;;
7737;SDS011;29398;45.328;5.558;2023-03-14T03:09:46;0.50;;;0.50;;
7737;SDS011;29398;45.328;5.558;2023-03-14T03:10:49;0.70;;;0.60;;
7737;SDS011;29398;45.328;5.558;2023-03-14T03:11:50;1.15;;;0.50;;
7737;SDS011;29398;45.328;5.558;2023-03-14T03:12:57;1.13;;;0.70;;
7737;SDS011;29398;45.328;5.558;2023-03-14T03:14:00;0.20;;;0.20;;
7737;SDS011;29398;45.328;5.558;2023-03-14T03:15:03;0.45;;;0.45;;
7737;SDS011;29398;45.328;5.558;2023-03-14T03:16:08;1.73;;;0.60;;
7737;SDS011;29398;45.328;5.558;2023-03-14T03:17:13;2.53;;;0.50;;
7737;SDS011;29398;45.328;5.558;2023-03-14T03:18:14;0.65;;;0.50;;
7737;SDS011;29398;45.328;5.558;2023-03-14T03:19:17;5.53;;;0.73;;
7737;SDS011;29398;45.328;5.558;2023-03-14T03:20:18;0.52;;;0.50;;
7737;SDS011;29398;45.328;5.558;2023-03-14T03:21:20;1.65;;;0.50;;
7737;SDS011;29398;45.328;5.558;2023-03-14T03:22:23;1.58;;;0.55;;
7737;SDS011;29398;45.328;5.558;2023-03-14T03:23:25;0.50;;;0.50;;
7737;SDS011;29398;45.328;5.558;2023-03-14T03:24:27;1.23;;;0.45;;
7737;SDS011;29398;45.328;5.558;2023-03-14T03:25:29;1.65;;;0.60;;
7737;SDS011;29398;45.328;5.558;2023-03-14T03:26:30;1.15;;;0.60;;
7737;SDS011;29398;45.328;5.558;2023-03-14T03:27:36;0.47;;;0.47;;
7737;SDS011;29398;45.328;5.558;2023-03-14T03:28:39;0.95;;;0.55;;
7737;SDS011;29398;45.328;5.558;2023-03-14T03:29:41;1.55;;;0.55;;
7737;SDS011;29398;45.328;5.558;2023-03-14T03:30:42;2.00;;;0.50;;
7737;SDS011;29398;45.328;5.558;2023-03-14T03:31:45;2.35;;;0.50;;
7737;SDS011;29398;45.328;5.558;2023-03-14T03:32:47;0.77;;;0.57;;
7737;SDS011;29398;45.328;5.558;2023-03-14T03:33:49;0.50;;;0.50;;
7737;SDS011;29398;45.328;5.558;2023-03-14T03:34:51;1.45;;;0.50;;
7737;SDS011;29398;45.328;5.558;2023-03-14T03:35:53;0.55;;;0.55;;
7737;SDS011;29398;45.328;5.558;2023-03-14T03:37:01;0.75;;;0.60;;
7737;SDS011;29398;45.328;5.558;2023-03-14T03:38:07;2.33;;;0.70;;
7737;SDS011;29398;45.328;5.558;2023-03-14T03:39:08;1.55;;;0.60;;
7737;SDS011;29398;45.328;5.558;2023-03-14T03:40:11;1.38;;;0.50;;
7737;SDS011;29398;45.328;5.558;2023-03-14T03:41:12;0.50;;;0.50;;
7737;SDS011;29398;45.328;5.558;2023-03-14T03:42:14;2.47;;;0.55;;
7737;SDS011;29398;45.328;5.558;2023-03-14T03:43:15;1.02;;;0.60;;
7737;SDS011;29398;45.328;5.558;2023-03-14T03:44:22;0.70;;;0.70;;
7737;SDS011;29398;45.328;5.558;2023-03-14T03:45:23;0.60;;;0.60;;
7737;SDS011;29398;45.328;5.558;2023-03-14T03:46:29;1.88;;;0.60;;
7737;SDS011;29398;45.328;5.558;2023-03-14T03:47:30;0.50;;;0.50;;
7737;SDS011;29398;45.328;5.558;2023-03-14T03:48:33;0.85;;;0.60;;
7737;SDS011;29398;45.328;5.558;2023-03-14T03:49:38;0.90;;;0.50;;
7737;SDS011;29398;45.328;5.558;2023-03-14T03:50:43;1.83;;;0.50;;
7737;SDS011;29398;45.328;5.558;2023-03-14T03:51:47;0.55;;;0.55;;
7737;SDS011;29398;45.328;5.558;2023-03-14T03:52:48;1.60;;;0.50;;
7737;SDS011;29398;45.328;5.558;2023-03-14T03:53:50;2.58;;;0.60;;
7737;SDS011;29398;45.328;5.558;2023-03-14T03:54:57;1.05;;;0.73;;
7737;SDS011;29398;45.328;5.558;2023-03-14T03:56:02;1.23;;;0.60;;
7737;SDS011;29398;45.328;5.558;2023-03-14T03:57:03;1.17;;;0.63;;
7737;SDS011;29398;45.328;5.558;2023-03-14T03:58:05;0.70;;;0.50;;
7737;SDS011;29398;45.328;5.558;2023-03-14T03:59:07;1.55;;;0.80;;
7737;SDS011;29398;45.328;5.558;2023-03-14T04:00:11;1.55;;;0.60;;
7737;SDS011;29398;45.328;5.558;2023-03-14T04:01:16;2.28;;;0.70;;
7737;SDS011;29398;45.328;5.558;2023-03-14T04:02:21;1.17;;;0.70;;
7737;SDS011;29398;45.328;5.558;2023-03-14T04:03:24;1.98;;;0.50;;
7737;SDS011;29398;45.328;5.558;2023-03-14T04:04:29;1.23;;;0.50;;
7737;SDS011;29398;45.328;5.558;2023-03-14T04:05:31;0.60;;;0.60;;
7737;SDS011;29398;45.328;5.558;2023-03-14T04:06:38;1.70;;;0.70;;
7737;SDS011;29398;45.328;5.558;2023-03-14T04:07:40;0.90;;;0.60;;
7737;SDS011;29398;45.328;5.558;2023-03-14T04:08:42;1.38;;;0.60;;
7737;SDS011;29398;45.328;5.558;2023-03-14T04:09:50;1.02;;;0.73;;
7737;SDS011;29398;45.328;5.558;2023-03-14T04:10:59;1.75;;;0.75;;
7737;SDS011;29398;45.328;5.558;2023-03-14T04:12:22;1.42;;;0.68;;
7737;SDS011;29398;45.328;5.558;2023-03-14T04:13:45;3.28;;;0.70;;
7737;SDS011;29398;45.328;5.558;2023-03-14T04:14:48;1.85;;;0.90;;
7737;SDS011;29398;45.328;5.558;2023-03-14T04:15:57;2.17;;;0.93;;
7737;SDS011;29398;45.328;5.558;2023-03-14T04:17:01;2.10;;;0.73;;
7737;SDS011;29398;45.328;5.558;2023-03-14T04:18:04;2.17;;;0.80;;
7737;SDS011;29398;45.328;5.558;2023-03-14T04:19:06;2.20;;;0.80;;
7737;SDS011;29398;45.328;5.558;2023-03-14T04:20:08;1.63;;;0.60;;
7737;SDS011;29398;45.328;5.558;2023-03-14T04:21:13;2.63;;;0.70;;
7737;SDS011;29398;45.328;5.558;2023-03-14T04:22:21;1.52;;;0.60;;
7737;SDS011;29398;45.328;5.558;2023-03-14T04:23:25;1.85;;;1.02;;
7737;SDS011;29398;45.328;5.558;2023-03-14T04:24:26;1.35;;;0.77;;
7737;SDS011;29398;45.328;5.558;2023-03-14T04:25:30;3.45;;;0.98;;
7737;SDS011;29398;45.328;5.558;2023-03-14T04:26:34;1.98;;;1.20;;
7737;SDS011;29398;45.328;5.558;2023-03-14T04:27:36;0.75;;;0.70;;
7737;SDS011;29398;45.328;5.558;2023-03-14T04:28:42;1.70;;;0.80;;
7737;SDS011;29398;45.328;5.558;2023-03-14T04:29:44;0.80;;;0.80;;
7737;SDS011;29398;45.328;5.558;2023-03-14T04:30:49;0.73;;;0.60;;
7737;SDS011;29398;45.328;5.558;2023-03-14T04:31:56;2.88;;;1.02;;
7737;SDS011;29398;45.328;5.558;2023-03-14T04:32:58;1.02;;;1.00;;
7737;SDS011;29398;45.328;5.558;2023-03-14T04:34:01;1.42;;;0.80;;
7737;SDS011;29398;45.328;5.558;2023-03-14T04:35:09;0.90;;;0.80;;
7737;SDS011;29398;45.328;5.558;2023-03-14T04:36:11;1.75;;;0.80;;
7737;SDS011;29398;45.328;5.558;2023-03-14T04:37:12;1.65;;;1.08;;
7737;SDS011;29398;45.328;5.558;2023-03-14T04:38:17;1.48;;;0.85;;
7737;SDS011;29398;45.328;5.558;2023-03-14T04:39:20;1.20;;;0.70;;
7737;SDS011;29398;45.328;5.558;2023-03-14T04:40:29;0.85;;;0.80;;
7737;SDS011;29398;45.328;5.558;2023-03-14T04:41:35;4.25;;;1.10;;
7737;SDS011;29398;45.328;5.558;2023-03-14T04:42:37;1.63;;;0.90;;
7737;SDS011;29398;45.328;5.558;2023-03-14T04:43:39;1.38;;;0.82;;
7737;SDS011;29398;45.328;5.558;2023-03-14T04:44:42;2.28;;;0.90;;
7737;SDS011;29398;45.328;5.558;2023-03-14T04:45:45;1.65;;;0.85;;
7737;SDS011;29398;45.328;5.558;2023-03-14T04:46:46;2.45;;;1.17;;
7737;SDS011;29398;45.328;5.558;2023-03-14T04:47:49;4.07;;;1.45;;
7737;SDS011;29398;45.328;5.558;2023-03-14T04:48:53;2.50;;;1.00;;
7737;SDS011;29398;45.328;5.558;2023-03-14T04:49:57;2.05;;;1.00;;
7737;SDS011;29398;45.328;5.558;2023-03-14T04:50:59;2.20;;;0.90;;
7737;SDS011;29398;45.328;5.558;2023-03-14T04:52:05;1.73;;;1.02;;
7737;SDS011;29398;45.328;5.558;2023-03-14T04:53:09;1.98;;;0.80;;
7737;SDS011;29398;45.328;5.558;2023-03-14T04:54:12;1.27;;;0.85;;
7737;SDS011;29398;45.328;5.558;2023-03-14T04:55:13;1.60;;;0.90;;
7737;SDS011;29398;45.328;5.558;2023-03-14T04:56:16;2.00;;;0.90;;
7737;SDS011;29398;45.328;5.558;2023-03-14T04:57:17;2.38;;;0.98;;
7737;SDS011;29398;45.328;5.558;2023-03-14T04:58:21;1.35;;;1.00;;
7737;SDS011;29398;45.328;5.558;2023-03-14T04:59:24;2.22;;;0.90;;
7737;SDS011;29398;45.328;5.558;2023-03-14T05:00:30;4.50;;;1.20;;
7737;SDS011;29398;45.328;5.558;2023-03-14T05:01:47;4.18;;;0.90;;
7737;SDS011;29398;45.328;5.558;2023-03-14T05:03:11;2.97;;;0.80;;
7737;SDS011;29398;45.328;5.558;2023-03-14T05:04:32;5.88;;;1.23;;
7737;SDS011;29398;45.328;5.558;2023-03-14T05:05:54;2.65;;;0.93;;
7737;SDS011;29398;45.328;5.558;2023-03-14T05:07:15;1.60;;;0.85;;
7737;SDS011;29398;45.328;5.558;2023-03-14T05:08:29;1.00;;;0.90;;
7737;SDS011;29398;45.328;5.558;2023-03-14T05:09:46;0.82;;;0.80;;
7737;SDS011;29398;45.328;5.558;2023-03-14T05:11:12;1.13;;;1.02;;
7737;SDS011;29398;45.328;5.558;2023-03-14T05:12:29;1.00;;;0.90;;
7737;SDS011;29398;45.328;5.558;2023-03-14T05:14:00;1.08;;;0.95;;
7737;SDS011;29398;45.328;5.558;2023-03-14T05:15:08;1.75;;;1.02;;
7737;SDS011;29398;45.328;5.558;2023-03-14T05:16:17;3.08;;;0.80;;
7737;SDS011;29398;45.328;5.558;2023-03-14T05:17:25;1.23;;;0.90;;
7737;SDS011;29398;45.328;5.558;2023-03-14T05:18:50;2.33;;;1.10;;
7737;SDS011;29398;45.328;5.558;2023-03-14T05:20:19;2.42;;;0.82;;
7737;SDS011;29398;45.328;5.558;2023-03-14T05:21:44;1.15;;;0.88;;
7737;SDS011;29398;45.328;5.558;2023-03-14T05:22:45;1.15;;;0.85;;
7737;SDS011;29398;45.328;5.558;2023-03-14T05:24:10;2.17;;;0.93;;
7737;SDS011;29398;45.328;5.558;2023-03-14T05:25:39;2.35;;;1.20;;
7737;SDS011;29398;45.328;5.558;2023-03-14T05:26:48;1.83;;;1.10;;
7737;SDS011;29398;45.328;5.558;2023-03-14T05:28:16;1.58;;;1.10;;
7737;SDS011;29398;45.328;5.558;2023-03-14T05:29:18;2.85;;;1.10;;
7737;SDS011;29398;45.328;5.558;2023-03-14T05:30:44;2.50;;;1.23;;
7737;SDS011;29398;45.328;5.558;2023-03-14T05:32:09;1.65;;;1.10;;
7737;SDS011;29398;45.328;5.558;2023-03-14T05:39:23;3.50;;;1.10;;
7737;SDS011;29398;45.328;5.558;2023-03-14T05:40:37;1.73;;;1.10;;
7737;SDS011;29398;45.328;5.558;2023-03-14T05:41:44;2.63;;;1.00;;
7737;SDS011;29398;45.328;5.558;2023-03-14T05:42:56;2.55;;;1.30;;
7737;SDS011;29398;45.328;5.558;2023-03-14T05:44:22;2.20;;;1.10;;
7737;SDS011;29398;45.328;5.558;2023-03-14T05:45:53;1.92;;;1.20;;
7737;SDS011;29398;45.328;5.558;2023-03-14T05:47:25;2.72;;;1.30;;
7737;SDS011;29398;45.328;5.558;2023-03-14T05:48:40;4.90;;;1.50;;
7737;SDS011;29398;45.328;5.558;2023-03-14T05:50:09;1.80;;;1.20;;
7737;SDS011;29398;45.328;5.558;2023-03-14T05:51:33;2.83;;;1.20;;
7737;SDS011;29398;45.328;5.558;2023-03-14T05:52:53;1.33;;;1.08;;
7737;SDS011;29398;45.328;5.558;2023-03-14T05:54:23;3.28;;;0.80;;
7737;SDS011;29398;45.328;5.558;2023-03-14T05:55:44;1.33;;;0.60;;
7737;SDS011;29398;45.328;5.558;2023-03-14T05:57:08;0.60;;;0.60;;
7737;SDS011;29398;45.328;5.558;2023-03-14T05:58:20;1.77;;;0.75;;
7737;SDS011;29398;45.328;5.558;2023-03-14T05:59:42;0.93;;;0.50;;
7737;SDS011;29398;45.328;5.558;2023-03-14T06:01:07;1.30;;;0.50;;
7737;SDS011;29398;45.328;5.558;2023-03-14T06:02:28;0.82;;;0.50;;
7737;SDS011;29398;45.328;5.558;2023-03-14T06:03:39;3.22;;;0.60;;
7737;SDS011;29398;45.328;5.558;2023-03-14T06:04:40;2.15;;;0.65;;
7737;SDS011;29398;45.328;5.558;2023-03-14T06:05:43;1.08;;;0.60;;
7737;SDS011;29398;45.328;5.558;2023-03-14T06:06:45;2.15;;;0.60;;
7737;SDS011;29398;45.328;5.558;2023-03-14T06:07:47;1.13;;;0.50;;
7737;SDS011;29398;45.328;5.558;2023-03-14T06:08:49;1.63;;;0.60;;
7737;SDS011;29398;45.328;5.558;2023-03-14T06:09:52;1.95;;;0.50;;
7737;SDS011;29398;45.328;5.558;2023-03-14T06:10:54;2.58;;;0.60;;
7737;SDS011;29398;45.328;5.558;2023-03-14T06:12:03;1.55;;;0.60;;
7737;SDS011;29398;45.328;5.558;2023-03-14T06:13:11;1.55;;;0.60;;
7737;SDS011;29398;45.328;5.558;2023-03-14T06:14:12;3.63;;;0.70;;
7737;SDS011;29398;45.328;5.558;2023-03-14T06:15:18;1.75;;;0.60;;
7737;SDS011;29398;45.328;5.558;2023-03-14T06:16:22;2.58;;;0.68;;
7737;SDS011;29398;45.328;5.558;2023-03-14T06:17:27;1.40;;;0.50;;
7737;SDS011;29398;45.328;5.558;2023-03-14T06:18:36;1.67;;;0.50;;
7737;SDS011;29398;45.328;5.558;2023-03-14T06:19:41;1.33;;;0.70;;
7737;SDS011;29398;45.328;5.558;2023-03-14T06:20:44;0.88;;;0.60;;
7737;SDS011;29398;45.328;5.558;2023-03-14T06:21:54;1.50;;;0.80;;
7737;SDS011;29398;45.328;5.558;2023-03-14T06:22:58;1.88;;;1.08;;
7737;SDS011;29398;45.328;5.558;2023-03-14T06:24:00;0.88;;;0.60;;
7737;SDS011;29398;45.328;5.558;2023-03-14T06:25:06;1.52;;;0.50;;
7737;SDS011;29398;45.328;5.558;2023-03-14T06:26:08;1.27;;;0.55;;
7737;SDS011;29398;45.328;5.558;2023-03-14T06:27:12;1.27;;;0.50;;
7737;SDS011;29398;45.328;5.558;2023-03-14T06:28:13;0.82;;;0.75;;
7737;SDS011;29398;45.328;5.558;2023-03-14T06:29:16;1.38;;;0.80;;
7737;SDS011;29398;45.328;5.558;2023-03-14T06:30:17;0.70;;;0.50;;
7737;SDS011;29398;45.328;5.558;2023-03-14T06:31:20;1.42;;;0.90;;
7737;SDS011;29398;45.328;5.558;2023-03-14T06:32:32;1.73;;;0.95;;
7737;SDS011;29398;45.328;5.558;2023-03-14T06:33:39;1.65;;;1.10;;
7737;SDS011;29398;45.328;5.558;2023-03-14T06:34:41;1.25;;;0.85;;
7737;SDS011;29398;45.328;5.558;2023-03-14T06:35:43;2.28;;;0.85;;
7737;SDS011;29398;45.328;5.558;2023-03-14T06:36:45;1.10;;;0.57;;
7737;SDS011;29398;45.328;5.558;2023-03-14T06:37:47;2.05;;;0.82;;
7737;SDS011;29398;45.328;5.558;2023-03-14T06:38:48;1.52;;;0.60;;
7737;SDS011;29398;45.328;5.558;2023-03-14T06:39:50;3.47;;;0.73;;
7737;SDS011;29398;45.328;5.558;2023-03-14T06:41:06;1.17;;;0.45;;
7737;SDS011;29398;45.328;5.558;2023-03-14T06:42:13;1.23;;;0.70;;
7737;SDS011;29398;45.328;5.558;2023-03-14T06:43:16;1.38;;;0.70;;
7737;SDS011;29398;45.328;5.558;2023-03-14T06:44:20;3.15;;;0.80;;
7737;SDS011;29398;45.328;5.558;2023-03-14T06:45:22;1.95;;;1.20;;
7737;SDS011;29398;45.328;5.558;2023-03-14T06:46:24;1.98;;;1.17;;
7737;SDS011;29398;45.328;5.558;2023-03-14T06:47:27;2.38;;;0.95;;
7737;SDS011;29398;45.328;5.558;2023-03-14T06:48:28;2.60;;;1.00;;
7737;SDS011;29398;45.328;5.558;2023-03-14T06:49:30;2.38;;;0.82;;